Time;durP1;ratioP1;P1;durP2;ratioP2;P2;SDS_P1;SDS_P2;PMS_P1;PMS_P2;Temp;Humidity;BMP_temperature;BMP_pressure;BME280_temperature;BME280_humidity;BME280_pressure;Samples;Min_cycle;Max_cycle;Signal;HPM_P1;HPM_P2
2022/08/21 00:00:23;;;;;;;4.50;3.40;;;;;;;14.81;100.00;96065.69;1039113;28;20068;-68
2022/08/21 00:00:53;;;;;;;5.18;4.05;;;;;;;14.79;100.00;96063.34;1039216;28;20025;-70
2022/08/21 00:01:25;;;;;;;4.88;3.78;;;;;;;14.81;100.00;96063.84;1037260;28;20018;-68
2022/08/21 00:01:59;;;;;;;3.90;3.50;;;;;;;14.80;100.00;96070.19;1030700;28;20014;-67
2022/08/21 00:02:30;;;;;;;5.07;3.83;;;;;;;14.82;100.00;96070.72;1033714;28;20022;-69
2022/08/21 00:03:06;;;;;;;4.75;3.80;;;;;;;14.75;100.00;96059.66;1035771;28;20030;-69
2022/08/21 00:03:37;;;;;;;4.28;3.58;;;;;;;14.82;100.00;96072.53;1034803;28;20033;-68
2022/08/21 00:04:08;;;;;;;5.32;4.18;;;;;;;14.76;100.00;96058.63;1034534;28;20026;-69
2022/08/21 00:04:38;;;;;;;4.32;3.70;;;;;;;14.79;100.00;96073.13;1030800;28;20089;-69
2022/08/21 00:05:09;;;;;;;4.85;4.35;;;;;;;14.79;100.00;96073.13;1031813;28;20125;-70
2022/08/21 00:05:45;;;;;;;6.43;4.28;;;;;;;14.75;100.00;96067.59;1038712;28;20392;-70
2022/08/21 00:06:15;;;;;;;8.75;4.30;;;;;;;14.73;100.00;96064.47;1040771;28;20020;-69
2022/08/21 00:06:46;;;;;;;5.47;3.63;;;;;;;14.72;100.00;96056.81;1043926;28;20498;-70
2022/08/21 00:07:17;;;;;;;5.72;4.28;;;;;;;14.76;100.00;96068.41;1039119;28;20737;-68
2022/08/21 00:07:47;;;;;;;6.15;4.05;;;;;;;14.75;100.00;96069.44;1038724;28;20018;-70
2022/08/21 00:08:18;;;;;;;10.88;4.57;;;;;;;14.68;100.00;96061.84;1038954;28;20040;-72
2022/08/21 00:08:50;;;;;;;5.40;4.00;;;;;;;14.72;100.00;96072.66;1042234;28;20017;-68
2022/08/21 00:09:21;;;;;;;4.80;3.65;;;;;;;14.71;100.00;96071.88;1039266;28;20025;-70
2022/08/21 00:09:52;;;;;;;4.63;3.90;;;;;;;14.69;100.00;96073.22;1038742;28;20552;-69
2022/08/21 00:10:22;;;;;;;8.55;4.60;;;;;;;14.60;100.00;96054.56;1043495;28;20610;-70
2022/08/21 00:10:53;;;;;;;5.60;3.90;;;;;;;14.69;100.00;96073.22;1040818;28;20017;-69
2022/08/21 00:11:23;;;;;;;4.95;4.03;;;;;;;14.71;100.00;96071.09;1034180;28;20392;-69
2022/08/21 00:11:54;;;;;;;6.80;4.78;;;;;;;14.71;100.00;96071.88;1034774;28;20030;-69
2022/08/21 00:12:25;;;;;;;7.28;4.75;;;;;;;14.70;100.00;96069.53;1034962;28;20430;-69
2022/08/21 00:12:55;;;;;;;5.10;4.03;;;;;;;14.69;100.00;96079.31;1039230;28;20020;-68
2022/08/21 00:13:26;;;;;;;4.40;3.72;;;;;;;14.66;100.00;96068.50;1043199;28;20028;-69
2022/08/21 00:13:56;;;;;;;6.60;3.90;;;;;;;14.67;100.00;96072.72;1042949;28;20043;-69
2022/08/21 00:14:27;;;;;;;6.47;3.90;;;;;;;14.51;100.00;96051.72;1046653;28;20593;-68
2022/08/21 00:14:58;;;;;;;7.13;4.38;;;;;;;14.64;100.00;96075.91;1047246;28;20100;-69
2022/08/21 00:15:29;;;;;;;5.47;4.00;;;;;;;14.64;100.00;96070.63;1047160;28;20517;-69
2022/08/21 00:15:59;;;;;;;4.10;3.70;;;;;;;14.57;100.00;96057.75;1034823;28;20452;-69
2022/08/21 00:16:30;;;;;;;5.70;4.45;;;;;;;14.61;100.00;96066.69;1034948;28;20061;-70
2022/08/21 00:17:01;;;;;;;5.10;3.88;;;;;;;14.60;100.00;96073.03;1034814;28;20022;-70
2022/08/21 00:17:31;;;;;;;5.72;4.30;;;;;;;14.58;100.00;96067.25;1038803;28;20013;-69
2022/08/21 00:18:02;;;;;;;5.80;4.28;;;;;;;14.55;100.00;96070.44;1038741;28;20022;-70
2022/08/21 00:18:32;;;;;;;6.28;4.30;;;;;;;14.53;100.00;96065.44;1043046;28;20024;-70
2022/08/21 00:19:03;;;;;;;4.40;3.97;;;;;;;14.51;100.00;96064.16;1034821;28;20022;-70
2022/08/21 00:19:33;;;;;;;4.35;3.95;;;;;;;14.55;100.00;96073.09;1042979;28;20051;-70
2022/08/21 00:20:06;;;;;;;6.22;4.45;;;;;;;14.49;100.00;96061.00;1043106;28;20024;-70
2022/08/21 00:20:37;;;;;;;6.20;4.13;;;;;;;14.47;100.00;96063.91;1043071;28;20036;-70
2022/08/21 00:21:07;;;;;;;6.40;4.45;;;;;;;14.50;100.00;96070.47;1036609;28;20121;-70
2022/08/21 00:21:38;;;;;;;6.80;4.68;;;;;;;14.50;100.00;96071.28;1038803;28;20527;-70
2022/08/21 00:22:08;;;;;;;5.97;3.92;;;;;;;14.45;100.00;96059.94;1035393;28;20046;-70
2022/08/21 00:22:39;;;;;;;5.88;4.07;;;;;;;14.49;100.00;96063.63;1034547;28;20042;-69
2022/08/21 00:23:10;;;;;;;7.43;4.22;;;;;;;14.47;100.00;96065.75;1034926;28;20660;-70
2022/08/21 00:23:40;;;;;;;5.47;4.32;;;;;;;14.48;100.00;96067.31;1038870;28;20116;-70
2022/08/21 00:24:11;;;;;;;4.70;3.88;;;;;;;14.45;100.00;96059.94;1038869;28;20399;-70
2022/08/21 00:24:42;;;;;;;5.03;4.53;;;;;;;14.48;100.00;96068.09;1036865;28;20653;-69
2022/08/21 00:25:13;;;;;;;6.15;3.80;;;;;;;14.45;100.00;96052.03;1039014;28;20105;-69
2022/08/21 00:25:43;;;;;;;5.72;4.63;;;;;;;14.48;100.00;96062.03;1042924;28;20054;-70
2022/08/21 00:26:14;;;;;;;4.15;3.60;;;;;;;14.49;100.00;96061.78;1042813;28;20444;-70
2022/08/21 00:26:45;;;;;;;4.78;4.07;;;;;;;14.49;100.00;96064.41;1042723;28;20075;-70
2022/08/21 00:27:15;;;;;;;6.55;4.15;;;;;;;14.47;100.00;96060.47;1039156;28;20026;-69
2022/08/21 00:27:46;;;;;;;4.30;3.70;;;;;;;14.46;100.00;96062.31;1047036;28;20577;-69
2022/08/21 00:28:16;;;;;;;4.35;3.80;;;;;;;14.46;100.00;96058.91;1042840;28;20025;-71
2022/08/21 00:28:48;;;;;;;4.60;4.00;;;;;;;14.44;100.00;96066.31;1038721;28;20029;-70
2022/08/21 00:29:19;;;;;;;7.15;4.30;;;;;;;14.41;100.00;96056.28;1039289;28;20021;-69
2022/08/21 00:29:49;;;;;;;5.38;4.22;;;;;;;14.43;100.00;96059.47;1046885;28;20024;-70
2022/08/21 00:30:21;;;;;;;4.45;4.05;;;;;;;14.42;100.00;96058.69;1043088;28;20017;-69
2022/08/21 00:30:51;;;;;;;5.65;4.30;;;;;;;14.44;100.00;96059.16;1047085;28;20009;-69
2022/08/21 00:31:22;;;;;;;5.38;4.13;;;;;;;14.43;100.00;96059.47;1046076;28;20044;-70
2022/08/21 00:31:53;;;;;;;4.85;4.05;;;;;;;14.44;100.00;96066.31;1043206;28;20021;-70
2022/08/21 00:32:24;;;;;;;5.00;4.05;;;;;;;14.46;100.00;96064.19;1043096;28;20013;-69
2022/08/21 00:32:55;;;;;;;9.18;4.82;;;;;;;14.44;100.00;96061.03;1044149;28;20013;-71
2022/08/21 00:33:25;;;;;;;5.00;4.50;;;;;;;14.43;100.00;96062.88;1047154;28;20025;-70
2022/08/21 00:33:58;;;;;;;4.88;3.90;;;;;;;14.38;100.00;96053.16;1043023;28;20043;-69
2022/08/21 00:34:29;;;;;;;4.45;3.97;;;;;;;14.42;100.00;96058.69;1043040;28;20619;-70
2022/08/21 00:34:59;;;;;;;4.10;3.55;;;;;;;14.40;100.00;96058.16;1043233;28;20702;-70
2022/08/21 00:35:32;;;;;;;7.20;3.60;;;;;;;14.36;100.00;96050.00;1042361;28;20021;-69
2022/08/21 00:36:02;;;;;;;4.32;3.60;;;;;;;14.36;100.00;96049.22;1043149;28;20500;-68
2022/08/21 00:36:33;;;;;;;4.10;3.70;;;;;;;14.43;100.00;96064.75;1042877;28;20037;-69
2022/08/21 00:37:04;;;;;;;5.22;3.65;;;;;;;14.43;100.00;96056.81;1039135;28;20779;-69
2022/08/21 00:37:34;;;;;;;4.45;3.95;;;;;;;14.40;100.00;96050.25;1042849;28;20028;-70
2022/08/21 00:38:05;;;;;;;4.82;3.85;;;;;;;14.41;100.00;96051.03;1042892;28;20651;-69
2022/08/21 00:38:36;;;;;;;5.00;4.50;;;;;;;14.33;100.00;96050.56;1047271;28;20108;-70
2022/08/21 00:39:07;;;;;;;4.60;3.88;;;;;;;14.36;100.00;96052.66;1038691;28;20121;-70
2022/08/21 00:39:40;;;;;;;3.83;3.40;;;;;;;14.33;100.00;96055.84;1042917;28;20039;-69
2022/08/21 00:40:17;;;;;;;8.00;4.18;;;;;;;14.28;100.00;96042.69;1042563;28;20028;-69
2022/08/21 00:40:51;;;;;;;3.70;3.33;;;;;;;14.32;100.00;96049.00;1042001;28;20471;-69
2022/08/21 00:41:23;;;;;;;4.50;3.78;;;;;;;14.29;100.00;96046.13;1045188;28;20016;-69
2022/08/21 00:41:53;;;;;;;4.93;4.10;;;;;;;14.32;100.00;96056.13;1030747;28;20109;-69
2022/08/21 00:42:24;;;;;;;4.40;3.85;;;;;;;14.27;100.00;96046.38;1035553;28;20084;-70
2022/08/21 00:42:54;;;;;;;4.88;4.38;;;;;;;14.34;100.00;96048.72;1034713;28;20547;-69
2022/08/21 00:43:30;;;;;;;4.40;3.78;;;;;;;14.38;100.00;96053.16;1042462;28;20124;-69
2022/08/21 00:44:01;;;;;;;8.15;4.00;;;;;;;14.42;100.00;96057.88;1034808;28;20062;-71
2022/08/21 00:44:31;;;;;;;5.15;4.00;;;;;;;14.42;100.00;96052.59;1038886;28;20030;-69
2022/08/21 00:45:02;;;;;;;6.53;4.43;;;;;;;14.41;100.00;96057.09;1039457;28;20387;-69
2022/08/21 00:45:33;;;;;;;5.20;4.50;;;;;;;14.35;100.00;96042.34;1039323;28;20144;-69
2022/08/21 00:46:04;;;;;;;5.25;3.88;;;;;;;14.35;100.00;96048.44;1038797;28;20104;-70
2022/08/21 00:46:35;;;;;;;6.90;4.28;;;;;;;14.38;100.00;96058.44;1030580;28;20635;-69
2022/08/21 00:47:05;;;;;;;6.80;4.10;;;;;;;14.38;100.00;96053.16;1042881;28;20017;-68
2022/08/21 00:47:36;;;;;;;10.50;5.10;;;;;;;14.38;100.00;96055.81;1042811;28;20059;-68
2022/08/21 00:48:06;;;;;;;4.97;3.63;;;;;;;14.38;100.00;96058.44;1038776;28;20037;-69
2022/08/21 00:48:37;;;;;;;4.90;3.92;;;;;;;14.36;100.00;96050.00;1038591;28;20105;-70
2022/08/21 00:49:08;;;;;;;5.53;4.20;;;;;;;14.35;100.00;96048.44;1038794;28;20031;-70
2022/08/21 00:49:39;;;;;;;5.90;4.50;;;;;;;14.36;100.00;96055.28;1038911;28;20022;-69
2022/08/21 00:50:10;;;;;;;5.25;3.97;;;;;;;14.31;100.00;96046.63;1039327;28;20064;-69
2022/08/21 00:51:07;;;;;;;4.47;3.95;;;;;;;14.37;100.00;96056.06;1046768;28;20540;-69
2022/08/21 00:51:41;;;;;;;8.35;4.40;;;;;;;14.34;100.00;96049.50;1029226;28;20034;-69
2022/08/21 00:52:17;;;;;;;6.07;4.03;;;;;;;14.27;100.00;96045.59;1040858;28;20014;-69
2022/08/21 00:52:49;;;;;;;7.35;4.35;;;;;;;14.31;100.00;96050.03;1047426;28;20017;-69
2022/08/21 00:53:20;;;;;;;4.80;3.70;;;;;;;14.31;100.00;96047.41;1043042;28;20017;-69
2022/08/21 00:53:53;;;;;;;4.22;3.83;;;;;;;14.29;100.00;96044.28;1037457;28;20021;-70
2022/08/21 00:54:24;;;;;;;6.18;4.22;;;;;;;14.27;100.00;96046.38;1026968;28;20089;-70
2022/08/21 00:54:55;;;;;;;9.23;4.38;;;;;;;14.25;100.00;96045.91;1038709;28;20700;-71
2022/08/21 00:55:26;;;;;;;3.85;3.45;;;;;;;14.20;100.00;96035.38;1034561;28;20528;-70
2022/08/21 00:55:57;;;;;;;5.43;3.83;;;;;;;14.26;100.00;96042.19;1030864;28;20133;-70
2022/08/21 00:56:28;;;;;;;8.57;3.83;;;;;;;14.27;100.00;96045.59;1038898;28;20095;-69
2022/08/21 00:57:01;;;;;;;6.55;3.67;;;;;;;14.25;100.00;96039.81;1042726;28;20389;-70
2022/08/21 00:57:34;;;;;;;8.02;4.35;;;;;;;14.28;100.00;96045.31;1043935;28;20017;-70
2022/08/21 00:58:06;;;;;;;5.57;4.47;;;;;;;14.29;100.00;96046.13;1038673;28;20056;-70
2022/08/21 00:58:37;;;;;;;5.40;4.60;;;;;;;14.26;100.00;96038.75;1034759;28;20022;-69
2022/08/21 00:59:09;;;;;;;4.53;3.85;;;;;;;14.33;100.00;96049.78;1041996;28;20105;-69
2022/08/21 00:59:39;;;;;;;4.10;3.67;;;;;;;14.34;100.00;96046.06;1038481;28;20095;-69
2022/08/21 01:00:12;;;;;;;6.80;4.22;;;;;;;14.34;100.00;96046.84;1047126;28;20012;-69
2022/08/21 01:00:44;;;;;;;4.05;3.65;;;;;;;14.32;100.00;96046.34;1041028;28;20021;-69
2022/08/21 01:01:14;;;;;;;4.22;3.78;;;;;;;14.32;100.00;96045.56;1038210;28;20010;-69
2022/08/21 01:01:45;;;;;;;4.57;4.15;;;;;;;14.28;100.00;96037.41;1041917;28;20028;-69
2022/08/21 01:02:16;;;;;;;7.03;4.00;;;;;;;14.26;100.00;96036.91;1042638;28;20047;-69
2022/08/21 01:02:46;;;;;;;6.10;4.40;;;;;;;14.31;100.00;96042.13;1038840;28;20462;-68
2022/08/21 01:03:20;;;;;;;4.50;4.10;;;;;;;14.33;100.00;96049.78;1038665;28;20037;-69
2022/08/21 01:03:51;;;;;;;4.55;4.00;;;;;;;14.29;100.00;96040.84;1043087;28;20036;-70
2022/08/21 01:04:21;;;;;;;3.72;3.30;;;;;;;14.33;100.00;96042.63;1042960;28;20028;-71
2022/08/21 01:04:52;;;;;;;4.57;4.07;;;;;;;14.28;100.00;96031.34;1039280;28;20014;-69
2022/08/21 01:05:22;;;;;;;4.20;3.80;;;;;;;14.29;100.00;96036.34;1030798;28;20018;-69
2022/08/21 01:05:53;;;;;;;4.07;3.67;;;;;;;14.33;100.00;96044.50;1038570;28;20049;-69
2022/08/21 01:06:23;;;;;;;3.85;3.53;;;;;;;14.33;100.00;96044.50;1038799;28;20071;-70
2022/08/21 01:06:54;;;;;;;3.95;3.50;;;;;;;14.29;100.00;96039.00;1034607;28;20033;-69
2022/08/21 01:07:25;;;;;;;5.15;4.13;;;;;;;14.31;100.00;96033.41;1037231;28;20017;-70
2022/08/21 01:07:56;;;;;;;3.88;3.47;;;;;;;14.35;100.00;96043.16;1034724;28;20014;-70
2022/08/21 01:08:28;;;;;;;4.22;3.83;;;;;;;14.31;100.00;96036.84;1034770;28;20105;-69
2022/08/21 01:08:59;;;;;;;4.20;3.80;;;;;;;14.32;100.00;96042.94;1030885;28;20037;-70
2022/08/21 01:09:30;;;;;;;3.90;3.50;;;;;;;14.29;100.00;96038.22;1042933;28;20060;-69
2022/08/21 01:10:00;;;;;;;4.68;3.85;;;;;;;14.32;100.00;96035.00;1038815;28;20494;-69
2022/08/21 01:10:31;;;;;;;4.47;3.92;;;;;;;14.33;100.00;96040.00;1042808;28;20013;-69
2022/08/21 01:11:01;;;;;;;10.77;3.45;;;;;;;14.35;100.00;96048.44;1034574;28;20018;-69
2022/08/21 01:11:32;;;;;;;4.53;3.75;;;;;;;14.33;100.00;96045.28;1034266;28;20486;-69
2022/08/21 01:12:03;;;;;;;6.90;4.07;;;;;;;14.32;100.00;96046.34;1038876;28;20034;-70
2022/08/21 01:12:34;;;;;;;7.07;3.42;;;;;;;14.34;100.00;96041.56;1049247;28;20080;-69
2022/08/21 01:13:07;;;;;;;3.97;3.58;;;;;;;14.27;100.00;96035.84;1042878;28;20543;-69
2022/08/21 01:13:39;;;;;;;3.65;3.10;;;;;;;14.34;100.00;96046.06;1036841;28;20045;-69
2022/08/21 01:14:12;;;;;;;4.32;3.90;;;;;;;14.34;100.00;96046.06;1045704;28;20020;-70
2022/08/21 01:14:45;;;;;;;5.35;3.85;;;;;;;14.32;100.00;96043.72;1042800;28;20446;-69
2022/08/21 01:15:15;;;;;;;4.22;3.67;;;;;;;14.33;100.00;96042.63;1042906;28;20017;-69
2022/08/21 01:15:48;;;;;;;4.20;3.80;;;;;;;14.28;100.00;96034.75;1034975;28;20050;-69
2022/08/21 01:16:19;;;;;;;4.53;3.95;;;;;;;14.33;100.00;96045.28;1046933;28;20017;-69
2022/08/21 01:16:50;;;;;;;5.00;3.90;;;;;;;14.31;100.00;96041.34;1046975;28;20021;-69
2022/08/21 01:17:21;;;;;;;4.35;3.65;;;;;;;14.20;100.00;96024.81;1043933;28;20390;-69
2022/08/21 01:17:51;;;;;;;4.00;3.67;;;;;;;14.22;100.00;96033.25;1035019;28;20032;-69
2022/08/21 01:18:22;;;;;;;5.22;4.00;;;;;;;14.27;100.00;96041.09;1038619;28;20030;-69
2022/08/21 01:18:53;;;;;;;7.22;4.10;;;;;;;14.28;100.00;96042.69;1034393;28;20022;-69
2022/08/21 01:19:23;;;;;;;5.32;4.00;;;;;;;14.28;100.00;96039.25;1036687;28;20026;-69
2022/08/21 01:19:58;;;;;;;4.07;3.60;;;;;;;14.25;100.00;96042.44;1034839;28;20022;-69
2022/08/21 01:20:28;;;;;;;4.53;3.30;;;;;;;14.26;100.00;96038.75;1044058;28;20527;-72
2022/08/21 01:21:10;;;;;;;3.97;3.28;;;;;;;14.22;100.00;96033.25;1047974;28;20063;-69
2022/08/21 01:21:41;;;;;;;4.28;3.88;;;;;;;14.27;100.00;96040.31;1040570;28;20033;-70
2022/08/21 01:22:11;;;;;;;7.15;3.78;;;;;;;14.26;100.00;96041.41;1041099;28;20096;-69
2022/08/21 01:22:44;;;;;;;4.28;3.80;;;;;;;14.26;100.00;96046.69;1038452;28;20044;-69
2022/08/21 01:23:15;;;;;;;5.43;4.20;;;;;;;14.27;100.00;96035.84;1041187;28;20018;-69
2022/08/21 01:23:52;;;;;;;6.53;3.83;;;;;;;14.25;100.00;96037.97;1050677;28;20111;-69
2022/08/21 01:24:22;;;;;;;4.13;3.72;;;;;;;14.25;100.00;96039.81;1047968;28;20052;-70
2022/08/21 01:24:53;;;;;;;3.70;3.40;;;;;;;14.29;100.00;96046.13;1042511;28;20043;-70
2022/08/21 01:25:23;;;;;;;4.95;4.10;;;;;;;14.28;100.00;96045.31;1042883;28;20088;-69
2022/08/21 01:25:54;;;;;;;4.03;3.63;;;;;;;14.28;100.00;96045.31;1038635;28;20029;-69
2022/08/21 01:26:27;;;;;;;4.15;3.28;;;;;;;14.23;100.00;96039.31;1038901;28;20037;-69
2022/08/21 01:26:58;;;;;;;4.05;3.35;;;;;;;14.29;100.00;96039.00;1038497;28;20021;-68
2022/08/21 01:27:28;;;;;;;5.57;3.47;;;;;;;14.28;100.00;96044.53;1034808;28;20026;-70
2022/08/21 01:28:00;;;;;;;3.85;3.40;;;;;;;14.27;100.00;96043.75;1033139;28;20205;-69
2022/08/21 01:28:32;;;;;;;3.70;3.40;;;;;;;14.22;100.00;96035.06;1030619;28;20019;-69
2022/08/21 01:29:24;;;;;;;3.58;3.28;;;;;;;14.27;100.00;96042.97;1039015;28;20014;-68
2022/08/21 01:30:02;;;;;;;3.67;3.35;;;;;;;14.21;100.00;96031.66;1034866;28;20654;-69
2022/08/21 01:30:32;;;;;;;3.78;3.45;;;;;;;14.27;100.00;96040.31;1042953;28;20031;-69
2022/08/21 01:31:03;;;;;;;4.35;3.95;;;;;;;14.28;100.00;96037.41;1033742;28;20059;-67
2022/08/21 01:31:34;;;;;;;3.78;3.35;;;;;;;14.28;100.00;96047.97;1042733;28;20128;-69
2022/08/21 01:32:08;;;;;;;4.47;3.40;;;;;;;14.22;100.00;96033.25;1038834;28;20105;-69
2022/08/21 01:32:38;;;;;;;7.10;4.22;;;;;;;14.22;100.00;96038.53;1034628;28;20026;-69
2022/08/21 01:33:09;;;;;;;3.53;3.22;;;;;;;14.20;100.00;96031.94;1034310;28;20734;-69
2022/08/21 01:33:40;;;;;;;5.45;3.63;;;;;;;14.25;100.00;96043.25;1039355;28;20034;-69
2022/08/21 01:34:10;;;;;;;3.95;3.53;;;;;;;14.26;100.00;96042.19;1046737;28;20567;-68
2022/08/21 01:34:42;;;;;;;3.92;3.35;;;;;;;14.28;100.00;96041.88;1042599;28;20029;-68
2022/08/21 01:35:13;;;;;;;6.00;3.28;;;;;;;14.26;100.00;96039.53;1038494;28;20017;-69
2022/08/21 01:35:44;;;;;;;4.15;3.60;;;;;;;14.25;100.00;96043.25;1033543;28;20113;-69
2022/08/21 01:36:15;;;;;;;3.75;3.45;;;;;;;14.25;100.00;96037.97;1038854;28;20009;-71
2022/08/21 01:36:45;;;;;;;4.97;3.42;;;;;;;14.25;100.00;96043.25;1042302;28;20055;-68
2022/08/21 01:37:19;;;;;;;4.65;3.17;;;;;;;14.23;100.00;96034.03;1034671;28;20159;-69
2022/08/21 01:37:49;;;;;;;4.30;3.40;;;;;;;14.23;100.00;96049.88;1038807;28;20428;-69
2022/08/21 01:38:20;;;;;;;4.00;3.60;;;;;;;14.23;100.00;96034.03;1042667;28;20028;-68
2022/08/21 01:38:50;;;;;;;6.07;4.05;;;;;;;14.22;100.00;96037.72;1042836;28;20779;-69
2022/08/21 01:39:21;;;;;;;5.13;3.72;;;;;;;14.18;100.00;96040.13;1030254;28;20117;-69
2022/08/21 01:39:51;;;;;;;4.80;3.50;;;;;;;14.18;100.00;96040.13;1036931;28;20022;-69
2022/08/21 01:40:22;;;;;;;4.30;3.90;;;;;;;14.15;100.00;96035.41;1031929;28;20435;-70
2022/08/21 01:40:52;;;;;;;3.92;3.05;;;;;;;14.16;100.00;96042.28;1033657;28;20037;-68
2022/08/21 01:41:23;;;;;;;4.68;3.88;;;;;;;14.17;100.00;96041.19;1043511;28;20541;-69
2022/08/21 01:41:53;;;;;;;6.70;3.55;;;;;;;14.15;100.00;96036.22;1038734;28;20025;-69
2022/08/21 01:42:24;;;;;;;5.20;3.75;;;;;;;14.19;100.00;96044.38;1036560;28;20060;-69
2022/08/21 01:42:54;;;;;;;4.05;3.65;;;;;;;14.12;100.00;96025.44;1042885;28;20044;-70
2022/08/21 01:43:25;;;;;;;3.88;3.45;;;;;;;14.20;100.00;96045.94;1037193;28;20204;-69
2022/08/21 01:43:55;;;;;;;3.80;3.50;;;;;;;14.14;100.00;96037.25;1038916;28;20092;-69
2022/08/21 01:44:26;;;;;;;5.90;3.83;;;;;;;14.12;100.00;96034.13;1042856;28;20020;-68
2022/08/21 01:44:56;;;;;;;3.97;3.58;;;;;;;14.18;100.00;96041.97;1038556;28;20029;-70
2022/08/21 01:45:27;;;;;;;3.75;3.45;;;;;;;14.17;100.00;96046.47;1042962;28;20154;-70
2022/08/21 01:45:57;;;;;;;5.35;3.28;;;;;;;14.16;100.00;96042.28;1042423;28;20025;-69
2022/08/21 01:46:27;;;;;;;4.63;3.72;;;;;;;14.17;100.00;96040.41;1038656;28;20087;-70
2022/08/21 01:47:00;;;;;;;4.05;3.40;;;;;;;14.10;100.00;96036.25;1042749;28;20108;-70
2022/08/21 01:47:30;;;;;;;4.20;3.55;;;;;;;14.14;100.00;96041.75;1038737;28;20025;-70
2022/08/21 01:48:04;;;;;;;4.38;3.33;;;;;;;14.07;100.00;96030.72;1041653;28;20033;-69
2022/08/21 01:48:34;;;;;;;4.35;3.22;;;;;;;14.17;100.00;96035.13;1035366;28;20026;-69
2022/08/21 01:49:05;;;;;;;3.70;3.40;;;;;;;14.14;100.00;96045.19;1035043;28;20025;-71
2022/08/21 01:49:36;;;;;;;3.38;3.08;;;;;;;14.16;100.00;96039.63;1034718;28;20022;-68
2022/08/21 01:50:08;;;;;;;5.15;3.75;;;;;;;14.17;100.00;96041.19;1042781;28;20025;-68
2022/08/21 01:50:38;;;;;;;5.47;3.58;;;;;;;14.12;100.00;96023.56;1035842;28;20022;-70
2022/08/21 01:51:09;;;;;;;3.67;3.30;;;;;;;14.03;100.00;96019.16;1038592;28;20455;-69
2022/08/21 01:51:40;;;;;;;4.20;3.78;;;;;;;14.09;100.00;96031.25;1034403;28;20061;-70
2022/08/21 01:52:11;;;;;;;4.00;3.45;;;;;;;14.06;100.00;96032.59;1038487;28;20060;-69
2022/08/21 01:52:41;;;;;;;7.40;4.55;;;;;;;14.10;100.00;96043.38;1038718;28;20068;-69
2022/08/21 01:53:13;;;;;;;5.25;3.95;;;;;;;14.09;100.00;96047.09;1038983;28;20112;-69
2022/08/21 01:53:43;;;;;;;9.70;3.63;;;;;;;14.06;100.00;96047.63;1026646;28;20105;-69
2022/08/21 01:54:14;;;;;;;4.80;3.95;;;;;;;14.04;100.00;96041.84;1031035;28;20058;-69
2022/08/21 01:54:45;;;;;;;4.18;3.67;;;;;;;14.05;100.00;96038.13;1038806;28;20029;-69
2022/08/21 01:55:16;;;;;;;5.03;3.40;;;;;;;14.06;100.00;96043.16;1039195;28;20868;-69
2022/08/21 01:55:46;;;;;;;4.00;3.58;;;;;;;14.08;100.00;96037.56;1055089;28;20066;-69
2022/08/21 01:56:16;;;;;;;4.20;3.60;;;;;;;14.00;100.00;96030.28;1055391;28;20505;-70
2022/08/21 01:56:49;;;;;;;4.07;3.67;;;;;;;14.04;100.00;96039.97;1051033;28;20107;-69
2022/08/21 01:57:20;;;;;;;4.07;3.65;;;;;;;13.96;100.00;96029.25;1053220;28;20048;-69
2022/08/21 01:57:50;;;;;;;4.82;3.80;;;;;;;13.93;100.00;96019.25;1047110;28;20024;-69
2022/08/21 01:58:20;;;;;;;4.78;3.75;;;;;;;14.01;100.00;96039.75;1051044;28;20077;-70
2022/08/21 01:58:51;;;;;;;4.15;3.75;;;;;;;14.00;100.00;96035.56;1042445;28;20025;-69
2022/08/21 01:59:22;;;;;;;7.07;3.75;;;;;;;13.94;100.00;96020.81;1039157;28;20060;-70
2022/08/21 01:59:53;;;;;;;5.07;4.10;;;;;;;13.93;100.00;96024.53;1038993;28;20769;-70
2022/08/21 02:00:23;;;;;;;4.70;3.58;;;;;;;14.00;100.00;96035.56;1039043;28;20116;-69
2022/08/21 02:00:54;;;;;;;4.28;3.55;;;;;;;14.00;100.00;96035.56;1042699;28;20064;-68
2022/08/21 02:01:24;;;;;;;4.55;3.90;;;;;;;14.01;100.00;96031.84;1040825;28;20032;-69
2022/08/21 02:01:55;;;;;;;6.68;4.07;;;;;;;14.00;100.00;96038.19;1042401;28;20470;-70
2022/08/21 02:02:26;;;;;;;6.63;3.70;;;;;;;13.94;100.00;96026.09;1038070;28;20030;-69
2022/08/21 02:02:57;;;;;;;4.25;3.85;;;;;;;13.99;100.00;96037.41;1038515;28;20029;-69
2022/08/21 02:03:30;;;;;;;6.93;3.90;;;;;;;13.91;100.00;96028.22;1038562;28;20653;-70
2022/08/21 02:04:00;;;;;;;7.85;4.07;;;;;;;13.97;100.00;96033.47;1038828;28;20025;-69
2022/08/21 02:04:32;;;;;;;4.32;3.88;;;;;;;13.94;100.00;96037.44;1030419;28;20061;-70
2022/08/21 02:05:03;;;;;;;4.38;3.97;;;;;;;13.93;100.00;96030.59;1038391;28;20483;-69
2022/08/21 02:05:34;;;;;;;6.03;3.97;;;;;;;13.93;100.00;96032.44;1038373;28;20021;-69
2022/08/21 02:06:06;;;;;;;3.80;3.50;;;;;;;13.91;100.00;96036.13;1038209;28;20033;-69
2022/08/21 02:06:37;;;;;;;5.38;4.00;;;;;;;13.85;100.00;96029.34;1034998;28;20469;-69
2022/08/21 02:07:07;;;;;;;4.65;3.92;;;;;;;13.87;100.00;96032.47;1038937;28;20030;-68
2022/08/21 02:07:41;;;;;;;4.82;3.58;;;;;;;13.88;100.00;96039.34;1035269;28;20030;-69
2022/08/21 02:08:12;;;;;;;3.70;3.38;;;;;;;13.88;100.00;96038.53;1035160;28;20026;-69
2022/08/21 02:08:43;;;;;;;6.90;3.67;;;;;;;13.86;100.00;96036.19;1038367;28;20067;-69
2022/08/21 02:09:13;;;;;;;3.85;3.50;;;;;;;13.84;100.00;96038.28;1039053;28;20025;-69
2022/08/21 02:09:44;;;;;;;3.60;3.30;;;;;;;13.85;100.00;96036.47;1046903;28;20032;-69
2022/08/21 02:10:18;;;;;;;5.05;3.70;;;;;;;13.86;100.00;96041.47;1042769;28;20032;-69
2022/08/21 02:10:50;;;;;;;4.13;3.75;;;;;;;13.88;100.00;96034.06;1039538;28;20098;-69
2022/08/21 02:11:23;;;;;;;5.35;4.07;;;;;;;13.87;100.00;96029.84;1034885;28;20030;-69
2022/08/21 02:11:54;;;;;;;4.53;3.70;;;;;;;13.80;100.00;96026.72;1042642;28;20036;-69
2022/08/21 02:12:24;;;;;;;4.38;3.88;;;;;;;13.85;100.00;96037.25;1035050;28;20037;-69
2022/08/21 02:12:55;;;;;;;5.15;4.40;;;;;;;13.88;100.00;96031.44;1034845;28;20029;-70
2022/08/21 02:13:26;;;;;;;4.35;3.22;;;;;;;13.91;100.00;96028.22;1030398;28;20668;-69
2022/08/21 02:13:56;;;;;;;7.93;3.80;;;;;;;13.89;100.00;96029.56;1030688;28;20074;-71
2022/08/21 02:14:30;;;;;;;4.50;4.00;;;;;;;13.86;100.00;96028.25;1030831;28;20113;-70
2022/08/21 02:15:00;;;;;;;6.00;3.40;;;;;;;13.84;100.00;96030.38;1022643;28;20027;-70
2022/08/21 02:15:31;;;;;;;4.93;4.03;;;;;;;13.85;100.00;96023.28;1026534;28;20030;-70
2022/08/21 02:16:02;;;;;;;4.78;4.30;;;;;;;13.85;100.00;96031.97;1038375;28;20057;-70
2022/08/21 02:16:33;;;;;;;4.43;3.72;;;;;;;13.77;100.00;96015.94;1038871;28;20029;-70
2022/08/21 02:17:03;;;;;;;4.10;3.67;;;;;;;13.85;100.00;96023.28;1042542;28;20033;-69
2022/08/21 02:17:56;;;;;;;4.18;3.78;;;;;;;13.88;100.00;96026.16;1042430;28;20485;-69
2022/08/21 02:18:27;;;;;;;5.20;4.10;;;;;;;13.88;100.00;96027.97;1034525;28;20102;-69
2022/08/21 02:18:57;;;;;;;6.85;3.65;;;;;;;13.87;100.00;96024.56;1040755;28;20409;-69
2022/08/21 02:19:28;;;;;;;6.53;4.10;;;;;;;13.89;100.00;96019.03;1045582;28;20084;-68
2022/08/21 02:19:58;;;;;;;5.53;4.30;;;;;;;13.89;100.00;96024.28;1046896;28;20055;-70
2022/08/21 02:20:38;;;;;;;6.32;3.92;;;;;;;13.77;100.00;96006.16;1046923;28;20771;-69
2022/08/21 02:21:08;;;;;;;5.38;3.80;;;;;;;13.85;100.00;96020.63;1037707;28;20547;-69
2022/08/21 02:21:39;;;;;;;4.18;3.65;;;;;;;13.85;100.00;96024.06;1030234;28;20049;-69
2022/08/21 02:22:09;;;;;;;6.00;3.80;;;;;;;13.83;100.00;96012.22;1038538;28;20051;-70
2022/08/21 02:22:40;;;;;;;6.97;3.95;;;;;;;13.83;100.00;96015.63;1038264;28;20044;-69
2022/08/21 02:23:10;;;;;;;4.07;3.67;;;;;;;13.77;100.00;96008.03;1038206;28;20041;-68
2022/08/21 02:23:41;;;;;;;7.03;3.75;;;;;;;13.83;100.00;96018.25;1030400;28;20108;-69
2022/08/21 02:24:12;;;;;;;5.22;4.30;;;;;;;13.78;100.00;96006.97;1030438;28;20888;-69
2022/08/21 02:24:43;;;;;;;4.18;3.78;;;;;;;13.82;100.00;96021.97;1042553;28;20051;-69
2022/08/21 02:25:14;;;;;;;4.18;3.75;;;;;;;13.81;100.00;96017.75;1042817;28;20029;-69
2022/08/21 02:25:47;;;;;;;4.20;3.67;;;;;;;13.83;100.00;96020.13;1046820;28;20828;-69
2022/08/21 02:26:17;;;;;;;4.20;3.80;;;;;;;13.76;100.00;96009.88;1046643;28;20035;-69